sensor_id;sensor_type;location;lat;lon;timestamp;P1;durP1;ratioP1;P2;durP2;ratioP2
18905;SDS011;9585;51.018;4.282;2024-01-15T00:01:01;14.60;;;8.77;;
18905;SDS011;9585;51.018;4.282;2024-01-15T00:03:31;14.97;;;9.00;;
18905;SDS011;9585;51.018;4.282;2024-01-15T00:05:58;14.97;;;8.60;;
18905;SDS011;9585;51.018;4.282;2024-01-15T00:08:26;13.40;;;8.53;;
18905;SDS011;9585;51.018;4.282;2024-01-15T00:10:53;13.00;;;8.60;;
18905;SDS011;9585;51.018;4.282;2024-01-15T00:13:24;12.30;;;7.90;;
18905;SDS011;9585;51.018;4.282;2024-01-15T00:15:51;14.60;;;7.97;;
18905;SDS011;9585;51.018;4.282;2024-01-15T00:18:21;13.50;;;7.80;;
18905;SDS011;9585;51.018;4.282;2024-01-15T00:20:50;11.67;;;6.90;;
18905;SDS011;9585;51.018;4.282;2024-01-15T00:23:18;10.73;;;6.90;;
18905;SDS011;9585;51.018;4.282;2024-01-15T00:25:45;10.77;;;6.70;;
18905;SDS011;9585;51.018;4.282;2024-01-15T00:28:13;10.27;;;6.20;;
18905;SDS011;9585;51.018;4.282;2024-01-15T00:30:41;9.33;;;6.10;;
18905;SDS011;9585;51.018;4.282;2024-01-15T00:33:09;8.40;;;5.93;;
18905;SDS011;9585;51.018;4.282;2024-01-15T00:35:38;10.27;;;6.30;;
18905;SDS011;9585;51.018;4.282;2024-01-15T00:38:07;8.50;;;6.00;;
18905;SDS011;9585;51.018;4.282;2024-01-15T00:40:42;8.60;;;5.50;;
18905;SDS011;9585;51.018;4.282;2024-01-15T00:43:09;7.43;;;4.70;;
18905;SDS011;9585;51.018;4.282;2024-01-15T00:45:37;7.47;;;4.90;;
18905;SDS011;9585;51.018;4.282;2024-01-15T00:48:05;7.20;;;4.40;;
18905;SDS011;9585;51.018;4.282;2024-01-15T00:50:33;6.63;;;3.93;;
18905;SDS011;9585;51.018;4.282;2024-01-15T00:53:00;10.07;;;4.33;;
18905;SDS011;9585;51.018;4.282;2024-01-15T00:55:30;6.13;;;3.70;;
18905;SDS011;9585;51.018;4.282;2024-01-15T00:57:57;7.03;;;3.70;;
18905;SDS011;9585;51.018;4.282;2024-01-15T01:00:25;9.70;;;4.15;;
18905;SDS011;9585;51.018;4.282;2024-01-15T01:02:52;6.97;;;4.10;;
18905;SDS011;9585;51.018;4.282;2024-01-15T01:05:20;7.73;;;3.73;;
18905;SDS011;9585;51.018;4.282;2024-01-15T01:07:48;5.67;;;3.77;;
18905;SDS011;9585;51.018;4.282;2024-01-15T01:10:15;6.13;;;3.60;;
18905;SDS011;9585;51.018;4.282;2024-01-15T01:12:45;7.03;;;3.93;;
18905;SDS011;9585;51.018;4.282;2024-01-15T01:15:12;6.80;;;3.90;;
18905;SDS011;9585;51.018;4.282;2024-01-15T01:17:40;3.80;;;3.37;;
18905;SDS011;9585;51.018;4.282;2024-01-15T01:20:07;4.17;;;3.33;;
18905;SDS011;9585;51.018;4.282;2024-01-15T01:22:39;5.53;;;3.50;;
18905;SDS011;9585;51.018;4.282;2024-01-15T01:25:06;4.80;;;3.20;;
18905;SDS011;9585;51.018;4.282;2024-01-15T01:27:34;5.10;;;3.43;;
18905;SDS011;9585;51.018;4.282;2024-01-15T01:30:04;5.33;;;3.50;;
18905;SDS011;9585;51.018;4.282;2024-01-15T01:32:32;4.23;;;3.20;;
18905;SDS011;9585;51.018;4.282;2024-01-15T01:35:00;4.40;;;3.17;;
18905;SDS011;9585;51.018;4.282;2024-01-15T01:37:28;3.57;;;2.80;;
18905;SDS011;9585;51.018;4.282;2024-01-15T01:39:55;5.33;;;3.20;;
18905;SDS011;9585;51.018;4.282;2024-01-15T01:42:23;4.43;;;2.93;;
18905;SDS011;9585;51.018;4.282;2024-01-15T01:44:53;4.27;;;3.07;;
18905;SDS011;9585;51.018;4.282;2024-01-15T01:47:22;4.80;;;3.23;;
18905;SDS011;9585;51.018;4.282;2024-01-15T01:49:51;4.37;;;2.87;;
18905;SDS011;9585;51.018;4.282;2024-01-15T01:52:19;5.77;;;3.00;;
18905;SDS011;9585;51.018;4.282;2024-01-15T01:54:47;4.73;;;2.83;;
18905;SDS011;9585;51.018;4.282;2024-01-15T01:57:15;5.03;;;3.17;;
18905;SDS011;9585;51.018;4.282;2024-01-15T01:59:44;3.47;;;2.70;;
18905;SDS011;9585;51.018;4.282;2024-01-15T02:02:13;5.63;;;2.73;;
18905;SDS011;9585;51.018;4.282;2024-01-15T02:04:43;4.83;;;2.80;;
18905;SDS011;9585;51.018;4.282;2024-01-15T02:07:11;4.80;;;2.73;;
18905;SDS011;9585;51.018;4.282;2024-01-15T02:09:41;3.90;;;2.70;;
18905;SDS011;9585;51.018;4.282;2024-01-15T02:12:09;4.43;;;2.90;;
18905;SDS011;9585;51.018;4.282;2024-01-15T02:14:36;5.53;;;2.90;;
18905;SDS011;9585;51.018;4.282;2024-01-15T02:17:04;3.73;;;2.53;;
18905;SDS011;9585;51.018;4.282;2024-01-15T02:19:32;4.37;;;2.50;;
18905;SDS011;9585;51.018;4.282;2024-01-15T02:22:00;3.47;;;2.60;;
18905;SDS011;9585;51.018;4.282;2024-01-15T02:24:29;4.00;;;2.53;;
18905;SDS011;9585;51.018;4.282;2024-01-15T02:26:57;6.17;;;2.90;;
18905;SDS011;9585;51.018;4.282;2024-01-15T02:29:25;4.50;;;2.43;;
18905;SDS011;9585;51.018;4.282;2024-01-15T02:31:53;3.57;;;2.37;;
18905;SDS011;9585;51.018;4.282;2024-01-15T02:34:21;6.93;;;3.20;;
18905;SDS011;9585;51.018;4.282;2024-01-15T02:36:48;5.17;;;3.33;;
18905;SDS011;9585;51.018;4.282;2024-01-15T02:39:16;4.87;;;3.10;;
18905;SDS011;9585;51.018;4.282;2024-01-15T02:41:45;5.40;;;3.00;;
18905;SDS011;9585;51.018;4.282;2024-01-15T02:44:13;5.87;;;3.20;;
18905;SDS011;9585;51.018;4.282;2024-01-15T02:46:40;4.33;;;2.80;;
18905;SDS011;9585;51.018;4.282;2024-01-15T02:49:08;7.10;;;3.00;;
18905;SDS011;9585;51.018;4.282;2024-01-15T02:51:36;4.00;;;2.80;;
18905;SDS011;9585;51.018;4.282;2024-01-15T02:54:04;5.43;;;3.03;;
18905;SDS011;9585;51.018;4.282;2024-01-15T02:56:31;7.30;;;2.97;;
18905;SDS011;9585;51.018;4.282;2024-01-15T02:59:00;4.63;;;2.73;;
18905;SDS011;9585;51.018;4.282;2024-01-15T03:01:29;4.60;;;2.90;;
18905;SDS011;9585;51.018;4.282;2024-01-15T03:03:56;4.40;;;3.03;;
18905;SDS011;9585;51.018;4.282;2024-01-15T03:06:24;4.13;;;2.87;;
18905;SDS011;9585;51.018;4.282;2024-01-15T03:08:51;4.37;;;3.00;;
18905;SDS011;9585;51.018;4.282;2024-01-15T03:11:21;4.33;;;2.87;;
18905;SDS011;9585;51.018;4.282;2024-01-15T03:13:49;4.63;;;2.90;;
18905;SDS011;9585;51.018;4.282;2024-01-15T03:16:18;5.07;;;2.80;;
18905;SDS011;9585;51.018;4.282;2024-01-15T03:18:46;6.27;;;2.70;;
18905;SDS011;9585;51.018;4.282;2024-01-15T03:21:13;4.63;;;2.50;;
18905;SDS011;9585;51.018;4.282;2024-01-15T03:23:41;4.37;;;2.80;;
18905;SDS011;9585;51.018;4.282;2024-01-15T03:26:08;4.27;;;2.83;;
18905;SDS011;9585;51.018;4.282;2024-01-15T03:28:36;6.53;;;3.13;;
18905;SDS011;9585;51.018;4.282;2024-01-15T03:31:03;4.80;;;2.67;;
18905;SDS011;9585;51.018;4.282;2024-01-15T03:33:33;4.63;;;2.73;;
18905;SDS011;9585;51.018;4.282;2024-01-15T03:36:00;7.57;;;3.10;;
18905;SDS011;9585;51.018;4.282;2024-01-15T03:38:28;4.07;;;2.30;;
18905;SDS011;9585;51.018;4.282;2024-01-15T03:40:56;4.70;;;2.83;;
18905;SDS011;9585;51.018;4.282;2024-01-15T03:43:23;3.53;;;2.70;;
18905;SDS011;9585;51.018;4.282;2024-01-15T03:45:51;3.43;;;2.67;;
18905;SDS011;9585;51.018;4.282;2024-01-15T03:48:18;3.33;;;2.40;;
18905;SDS011;9585;51.018;4.282;2024-01-15T03:50:47;6.57;;;2.90;;
18905;SDS011;9585;51.018;4.282;2024-01-15T03:53:15;4.27;;;2.87;;
18905;SDS011;9585;51.018;4.282;2024-01-15T03:55:43;4.37;;;2.63;;
18905;SDS011;9585;51.018;4.282;2024-01-15T03:58:10;6.07;;;3.00;;
18905;SDS011;9585;51.018;4.282;2024-01-15T04:00:40;7.07;;;2.93;;
18905;SDS011;9585;51.018;4.282;2024-01-15T04:03:07;4.57;;;2.90;;
18905;SDS011;9585;51.018;4.282;2024-01-15T04:05:35;3.00;;;2.47;;
18905;SDS011;9585;51.018;4.282;2024-01-15T04:08:04;3.90;;;3.10;;
18905;SDS011;9585;51.018;4.282;2024-01-15T04:10:33;5.50;;;3.30;;
18905;SDS011;9585;51.018;4.282;2024-01-15T04:13:00;4.83;;;2.97;;
18905;SDS011;9585;51.018;4.282;2024-01-15T04:15:28;6.20;;;3.30;;
18905;SDS011;9585;51.018;4.282;2024-01-15T04:17:56;4.50;;;2.80;;
18905;SDS011;9585;51.018;4.282;2024-01-15T04:20:24;5.90;;;2.90;;
18905;SDS011;9585;51.018;4.282;2024-01-15T04:22:51;5.20;;;3.20;;
18905;SDS011;9585;51.018;4.282;2024-01-15T04:25:20;5.27;;;3.10;;
18905;SDS011;9585;51.018;4.282;2024-01-15T04:27:48;4.77;;;3.00;;
18905;SDS011;9585;51.018;4.282;2024-01-15T04:30:16;4.27;;;2.90;;
18905;SDS011;9585;51.018;4.282;2024-01-15T04:32:43;9.57;;;3.30;;
18905;SDS011;9585;51.018;4.282;2024-01-15T04:35:11;3.43;;;2.90;;
18905;SDS011;9585;51.018;4.282;2024-01-15T04:37:39;3.97;;;3.23;;
18905;SDS011;9585;51.018;4.282;2024-01-15T04:40:07;4.43;;;3.23;;
18905;SDS011;9585;51.018;4.282;2024-01-15T04:42:37;5.50;;;2.93;;
18905;SDS011;9585;51.018;4.282;2024-01-15T04:45:04;5.57;;;3.43;;
18905;SDS011;9585;51.018;4.282;2024-01-15T04:47:32;5.77;;;3.20;;
18905;SDS011;9585;51.018;4.282;2024-01-15T04:50:02;5.27;;;3.10;;
18905;SDS011;9585;51.018;4.282;2024-01-15T04:52:30;5.30;;;2.77;;
18905;SDS011;9585;51.018;4.282;2024-01-15T04:54:57;3.83;;;3.03;;
18905;SDS011;9585;51.018;4.282;2024-01-15T04:57:25;5.40;;;3.03;;
18905;SDS011;9585;51.018;4.282;2024-01-15T04:59:54;6.70;;;3.10;;
18905;SDS011;9585;51.018;4.282;2024-01-15T05:02:22;5.23;;;2.57;;
18905;SDS011;9585;51.018;4.282;2024-01-15T05:04:49;6.63;;;3.03;;
18905;SDS011;9585;51.018;4.282;2024-01-15T05:07:17;5.73;;;2.70;;
18905;SDS011;9585;51.018;4.282;2024-01-15T05:09:44;5.87;;;2.80;;
18905;SDS011;9585;51.018;4.282;2024-01-15T05:12:13;5.47;;;2.20;;
18905;SDS011;9585;51.018;4.282;2024-01-15T05:14:41;7.00;;;2.47;;
18905;SDS011;9585;51.018;4.282;2024-01-15T05:17:10;6.40;;;2.10;;
18905;SDS011;9585;51.018;4.282;2024-01-15T05:19:37;5.70;;;1.80;;
18905;SDS011;9585;51.018;4.282;2024-01-15T05:22:05;6.67;;;1.93;;
18905;SDS011;9585;51.018;4.282;2024-01-15T05:24:34;6.57;;;1.73;;
18905;SDS011;9585;51.018;4.282;2024-01-15T05:27:02;4.60;;;1.77;;
18905;SDS011;9585;51.018;4.282;2024-01-15T05:29:30;4.93;;;1.70;;
18905;SDS011;9585;51.018;4.282;2024-01-15T05:31:57;6.27;;;1.40;;
18905;SDS011;9585;51.018;4.282;2024-01-15T05:34:26;4.80;;;1.83;;
18905;SDS011;9585;51.018;4.282;2024-01-15T05:36:54;5.47;;;1.70;;
18905;SDS011;9585;51.018;4.282;2024-01-15T05:39:21;4.50;;;1.47;;
18905;SDS011;9585;51.018;4.282;2024-01-15T05:41:50;4.23;;;1.50;;
18905;SDS011;9585;51.018;4.282;2024-01-15T05:44:18;4.20;;;1.80;;
18905;SDS011;9585;51.018;4.282;2024-01-15T05:46:45;7.57;;;1.43;;
18905;SDS011;9585;51.018;4.282;2024-01-15T05:49:13;3.93;;;1.30;;
18905;SDS011;9585;51.018;4.282;2024-01-15T05:51:42;4.07;;;1.50;;
18905;SDS011;9585;51.018;4.282;2024-01-15T05:54:10;2.90;;;1.50;;
18905;SDS011;9585;51.018;4.282;2024-01-15T05:56:37;2.57;;;1.40;;
18905;SDS011;9585;51.018;4.282;2024-01-15T05:59:05;5.23;;;1.70;;
18905;SDS011;9585;51.018;4.282;2024-01-15T06:01:32;5.80;;;1.60;;
18905;SDS011;9585;51.018;4.282;2024-01-15T06:04:00;4.90;;;1.33;;
18905;SDS011;9585;51.018;4.282;2024-01-15T06:06:28;3.13;;;1.40;;
18905;SDS011;9585;51.018;4.282;2024-01-15T06:08:57;6.10;;;1.30;;
18905;SDS011;9585;51.018;4.282;2024-01-15T06:11:30;3.90;;;1.50;;
18905;SDS011;9585;51.018;4.282;2024-01-15T06:13:58;3.93;;;1.30;;
18905;SDS011;9585;51.018;4.282;2024-01-15T06:16:26;5.73;;;1.33;;
18905;SDS011;9585;51.018;4.282;2024-01-15T06:18:55;3.80;;;1.40;;
18905;SDS011;9585;51.018;4.282;2024-01-15T06:21:22;4.33;;;1.50;;
18905;SDS011;9585;51.018;4.282;2024-01-15T06:23:50;5.73;;;1.60;;
18905;SDS011;9585;51.018;4.282;2024-01-15T06:26:18;6.47;;;1.70;;
18905;SDS011;9585;51.018;4.282;2024-01-15T06:28:46;5.70;;;1.40;;
18905;SDS011;9585;51.018;4.282;2024-01-15T06:31:14;4.53;;;1.47;;
18905;SDS011;9585;51.018;4.282;2024-01-15T06:33:42;5.23;;;1.50;;
18905;SDS011;9585;51.018;4.282;2024-01-15T06:36:12;4.17;;;1.93;;
18905;SDS011;9585;51.018;4.282;2024-01-15T06:38:39;5.03;;;1.50;;
18905;SDS011;9585;51.018;4.282;2024-01-15T06:41:07;3.23;;;1.73;;
18905;SDS011;9585;51.018;4.282;2024-01-15T06:43:37;5.07;;;1.80;;
18905;SDS011;9585;51.018;4.282;2024-01-15T06:46:04;4.27;;;1.60;;
18905;SDS011;9585;51.018;4.282;2024-01-15T06:48:32;4.17;;;1.60;;
18905;SDS011;9585;51.018;4.282;2024-01-15T06:50:59;4.00;;;1.43;;
18905;SDS011;9585;51.018;4.282;2024-01-15T06:53:30;7.13;;;1.40;;
18905;SDS011;9585;51.018;4.282;2024-01-15T06:55:57;4.23;;;1.60;;
18905;SDS011;9585;51.018;4.282;2024-01-15T06:58:25;4.77;;;1.60;;
18905;SDS011;9585;51.018;4.282;2024-01-15T07:00:56;6.53;;;1.60;;
18905;SDS011;9585;51.018;4.282;2024-01-15T07:03:23;3.00;;;1.83;;
18905;SDS011;9585;51.018;4.282;2024-01-15T07:05:53;7.37;;;2.10;;
18905;SDS011;9585;51.018;4.282;2024-01-15T07:08:20;5.60;;;2.10;;
18905;SDS011;9585;51.018;4.282;2024-01-15T07:10:48;6.53;;;1.87;;
18905;SDS011;9585;51.018;4.282;2024-01-15T07:13:15;4.67;;;2.00;;
18905;SDS011;9585;51.018;4.282;2024-01-15T07:15:43;7.87;;;2.20;;
18905;SDS011;9585;51.018;4.282;2024-01-15T07:18:12;4.30;;;1.83;;
18905;SDS011;9585;51.018;4.282;2024-01-15T07:20:39;2.10;;;1.53;;
18905;SDS011;9585;51.018;4.282;2024-01-15T07:23:07;3.20;;;1.60;;
18905;SDS011;9585;51.018;4.282;2024-01-15T07:25:34;7.13;;;1.83;;
18905;SDS011;9585;51.018;4.282;2024-01-15T07:28:02;4.67;;;1.87;;
18905;SDS011;9585;51.018;4.282;2024-01-15T07:30:30;7.20;;;2.23;;
18905;SDS011;9585;51.018;4.282;2024-01-15T07:32:58;4.37;;;1.90;;
18905;SDS011;9585;51.018;4.282;2024-01-15T07:35:26;7.80;;;2.10;;
18905;SDS011;9585;51.018;4.282;2024-01-15T07:37:53;5.40;;;2.30;;
18905;SDS011;9585;51.018;4.282;2024-01-15T07:40:21;4.43;;;2.30;;
18905;SDS011;9585;51.018;4.282;2024-01-15T07:42:50;4.20;;;2.00;;
18905;SDS011;9585;51.018;4.282;2024-01-15T07:45:17;6.87;;;2.00;;
18905;SDS011;9585;51.018;4.282;2024-01-15T07:47:45;7.37;;;2.13;;
18905;SDS011;9585;51.018;4.282;2024-01-15T07:50:12;5.60;;;1.97;;
18905;SDS011;9585;51.018;4.282;2024-01-15T07:52:41;5.07;;;2.10;;
18905;SDS011;9585;51.018;4.282;2024-01-15T07:55:09;4.10;;;1.87;;
18905;SDS011;9585;51.018;4.282;2024-01-15T07:57:36;8.67;;;2.13;;
18905;SDS011;9585;51.018;4.282;2024-01-15T08:00:05;6.20;;;2.60;;
18905;SDS011;9585;51.018;4.282;2024-01-15T08:02:34;5.27;;;1.87;;
18905;SDS011;9585;51.018;4.282;2024-01-15T08:05:02;4.90;;;1.90;;
18905;SDS011;9585;51.018;4.282;2024-01-15T08:07:29;6.33;;;1.70;;
18905;SDS011;9585;51.018;4.282;2024-01-15T08:09:59;5.00;;;1.83;;
18905;SDS011;9585;51.018;4.282;2024-01-15T08:12:26;4.10;;;1.63;;
18905;SDS011;9585;51.018;4.282;2024-01-15T08:14:54;7.70;;;1.80;;
18905;SDS011;9585;51.018;4.282;2024-01-15T08:17:21;5.87;;;2.40;;
18905;SDS011;9585;51.018;4.282;2024-01-15T08:19:53;4.40;;;2.13;;
18905;SDS011;9585;51.018;4.282;2024-01-15T08:22:22;4.93;;;1.73;;
18905;SDS011;9585;51.018;4.282;2024-01-15T08:24:49;6.57;;;2.20;;
18905;SDS011;9585;51.018;4.282;2024-01-15T08:27:18;3.03;;;1.67;;
18905;SDS011;9585;51.018;4.282;2024-01-15T08:29:46;7.10;;;1.90;;
18905;SDS011;9585;51.018;4.282;2024-01-15T08:32:14;4.73;;;1.87;;
18905;SDS011;9585;51.018;4.282;2024-01-15T08:34:41;4.43;;;1.70;;
18905;SDS011;9585;51.018;4.282;2024-01-15T08:37:09;6.23;;;1.80;;
18905;SDS011;9585;51.018;4.282;2024-01-15T08:39:36;5.90;;;1.50;;
18905;SDS011;9585;51.018;4.282;2024-01-15T08:42:05;5.73;;;1.80;;
18905;SDS011;9585;51.018;4.282;2024-01-15T08:44:34;5.87;;;1.73;;
18905;SDS011;9585;51.018;4.282;2024-01-15T08:47:02;4.17;;;1.73;;
18905;SDS011;9585;51.018;4.282;2024-01-15T08:49:30;4.60;;;2.00;;
18905;SDS011;9585;51.018;4.282;2024-01-15T08:51:58;5.93;;;2.33;;
18905;SDS011;9585;51.018;4.282;2024-01-15T08:54:26;5.90;;;2.20;;
18905;SDS011;9585;51.018;4.282;2024-01-15T08:56:53;10.00;;;2.30;;
18905;SDS011;9585;51.018;4.282;2024-01-15T08:59:24;4.43;;;1.80;;
18905;SDS011;9585;51.018;4.282;2024-01-15T09:01:55;5.40;;;2.10;;
18905;SDS011;9585;51.018;4.282;2024-01-15T09:04:23;7.43;;;2.00;;
18905;SDS011;9585;51.018;4.282;2024-01-15T09:06:53;6.97;;;1.90;;
18905;SDS011;9585;51.018;4.282;2024-01-15T09:09:21;5.63;;;1.90;;
18905;SDS011;9585;51.018;4.282;2024-01-15T09:11:50;4.47;;;1.80;;
18905;SDS011;9585;51.018;4.282;2024-01-15T09:14:17;5.67;;;2.23;;
18905;SDS011;9585;51.018;4.282;2024-01-15T09:16:47;6.97;;;2.00;;
18905;SDS011;9585;51.018;4.282;2024-01-15T09:19:16;4.33;;;1.90;;
18905;SDS011;9585;51.018;4.282;2024-01-15T09:21:44;5.17;;;2.00;;
18905;SDS011;9585;51.018;4.282;2024-01-15T09:24:12;5.07;;;2.10;;
18905;SDS011;9585;51.018;4.282;2024-01-15T09:26:42;4.53;;;1.67;;
18905;SDS011;9585;51.018;4.282;2024-01-15T09:29:10;4.50;;;1.90;;
18905;SDS011;9585;51.018;4.282;2024-01-15T09:31:39;5.37;;;1.77;;
18905;SDS011;9585;51.018;4.282;2024-01-15T09:34:06;7.47;;;2.00;;
18905;SDS011;9585;51.018;4.282;2024-01-15T09:36:40;7.20;;;1.90;;
18905;SDS011;9585;51.018;4.282;2024-01-15T09:39:08;5.87;;;1.53;;
18905;SDS011;9585;51.018;4.282;2024-01-15T09:41:36;5.63;;;1.70;;
18905;SDS011;9585;51.018;4.282;2024-01-15T09:44:04;4.27;;;1.90;;
18905;SDS011;9585;51.018;4.282;2024-01-15T09:46:33;6.30;;;1.93;;
18905;SDS011;9585;51.018;4.282;2024-01-15T09:49:01;4.00;;;1.80;;
18905;SDS011;9585;51.018;4.282;2024-01-15T09:51:31;6.33;;;1.50;;
18905;SDS011;9585;51.018;4.282;2024-01-15T09:54:00;6.10;;;1.57;;
18905;SDS011;9585;51.018;4.282;2024-01-15T09:56:27;5.77;;;1.63;;
18905;SDS011;9585;51.018;4.282;2024-01-15T09:58:55;6.23;;;2.03;;
18905;SDS011;9585;51.018;4.282;2024-01-15T10:01:25;3.27;;;1.30;;
18905;SDS011;9585;51.018;4.282;2024-01-15T10:03:56;6.03;;;1.60;;
18905;SDS011;9585;51.018;4.282;2024-01-15T10:06:25;3.70;;;1.57;;
18905;SDS011;9585;51.018;4.282;2024-01-15T10:08:54;4.80;;;1.60;;
18905;SDS011;9585;51.018;4.282;2024-01-15T10:11:26;6.33;;;2.30;;
18905;SDS011;9585;51.018;4.282;2024-01-15T10:13:55;4.70;;;1.90;;
18905;SDS011;9585;51.018;4.282;2024-01-15T10:16:23;5.13;;;1.30;;
18905;SDS011;9585;51.018;4.282;2024-01-15T10:18:50;4.60;;;1.40;;
18905;SDS011;9585;51.018;4.282;2024-01-15T10:21:18;4.17;;;1.70;;
18905;SDS011;9585;51.018;4.282;2024-01-15T10:23:49;5.17;;;1.63;;
18905;SDS011;9585;51.018;4.282;2024-01-15T10:26:16;5.07;;;1.80;;
18905;SDS011;9585;51.018;4.282;2024-01-15T10:28:46;4.80;;;1.60;;
18905;SDS011;9585;51.018;4.282;2024-01-15T10:31:17;4.07;;;1.50;;
18905;SDS011;9585;51.018;4.282;2024-01-15T10:33:47;6.93;;;1.80;;
18905;SDS011;9585;51.018;4.282;2024-01-15T10:36:15;4.43;;;1.43;;
18905;SDS011;9585;51.018;4.282;2024-01-15T10:38:43;6.60;;;1.50;;
18905;SDS011;9585;51.018;4.282;2024-01-15T10:41:11;4.23;;;1.50;;
18905;SDS011;9585;51.018;4.282;2024-01-15T10:43:39;5.77;;;1.57;;
18905;SDS011;9585;51.018;4.282;2024-01-15T10:46:11;4.20;;;1.50;;
18905;SDS011;9585;51.018;4.282;2024-01-15T10:48:41;6.53;;;1.47;;
18905;SDS011;9585;51.018;4.282;2024-01-15T10:51:12;4.13;;;1.77;;
18905;SDS011;9585;51.018;4.282;2024-01-15T10:53:41;5.80;;;1.50;;
18905;SDS011;9585;51.018;4.282;2024-01-15T10:56:12;3.70;;;1.40;;
18905;SDS011;9585;51.018;4.282;2024-01-15T10:58:40;4.60;;;1.13;;
18905;SDS011;9585;51.018;4.282;2024-01-15T11:01:10;3.73;;;1.00;;
18905;SDS011;9585;51.018;4.282;2024-01-15T11:03:39;6.40;;;1.30;;
18905;SDS011;9585;51.018;4.282;2024-01-15T11:06:15;5.23;;;1.13;;
18905;SDS011;9585;51.018;4.282;2024-01-15T11:08:45;5.83;;;1.47;;
18905;SDS011;9585;51.018;4.282;2024-01-15T11:11:15;5.20;;;1.10;;
18905;SDS011;9585;51.018;4.282;2024-01-15T11:13:43;3.40;;;1.03;;
18905;SDS011;9585;51.018;4.282;2024-01-15T11:16:17;4.10;;;1.10;;
18905;SDS011;9585;51.018;4.282;2024-01-15T11:19:01;3.07;;;1.17;;
18905;SDS011;9585;51.018;4.282;2024-01-15T11:21:33;3.73;;;1.07;;
18905;SDS011;9585;51.018;4.282;2024-01-15T11:24:09;4.20;;;1.20;;
18905;SDS011;9585;51.018;4.282;2024-01-15T11:26:43;3.87;;;1.10;;
18905;SDS011;9585;51.018;4.282;2024-01-15T11:32:00;3.20;;;0.90;;
18905;SDS011;9585;51.018;4.282;2024-01-15T11:37:19;4.70;;;0.90;;
18905;SDS011;9585;51.018;4.282;2024-01-15T11:39:50;4.33;;;1.13;;
18905;SDS011;9585;51.018;4.282;2024-01-15T11:42:21;3.60;;;0.80;;
18905;SDS011;9585;51.018;4.282;2024-01-15T11:44:49;8.97;;;1.30;;
18905;SDS011;9585;51.018;4.282;2024-01-15T11:47:23;4.37;;;0.90;;
18905;SDS011;9585;51.018;4.282;2024-01-15T11:50:23;4.80;;;1.10;;
18905;SDS011;9585;51.018;4.282;2024-01-15T11:52:55;5.80;;;1.20;;
18905;SDS011;9585;51.018;4.282;2024-01-15T11:55:30;4.83;;;1.20;;
18905;SDS011;9585;51.018;4.282;2024-01-15T11:58:01;3.70;;;1.10;;
18905;SDS011;9585;51.018;4.282;2024-01-15T12:00:34;5.10;;;1.17;;
18905;SDS011;9585;51.018;4.282;2024-01-15T12:03:07;6.50;;;2.03;;
18905;SDS011;9585;51.018;4.282;2024-01-15T12:05:36;3.57;;;1.00;;
18905;SDS011;9585;51.018;4.282;2024-01-15T12:08:07;6.07;;;1.70;;
18905;SDS011;9585;51.018;4.282;2024-01-15T12:10:36;6.23;;;1.80;;
18905;SDS011;9585;51.018;4.282;2024-01-15T12:13:06;5.97;;;1.70;;
18905;SDS011;9585;51.018;4.282;2024-01-15T12:15:37;3.53;;;1.07;;
18905;SDS011;9585;51.018;4.282;2024-01-15T12:18:08;4.47;;;1.83;;
18905;SDS011;9585;51.018;4.282;2024-01-15T12:20:36;7.50;;;1.40;;
18905;SDS011;9585;51.018;4.282;2024-01-15T12:23:04;4.40;;;1.30;;
18905;SDS011;9585;51.018;4.282;2024-01-15T12:25:31;4.63;;;1.20;;
18905;SDS011;9585;51.018;4.282;2024-01-15T12:28:00;2.33;;;1.00;;
18905;SDS011;9585;51.018;4.282;2024-01-15T12:30:28;4.60;;;1.17;;
18905;SDS011;9585;51.018;4.282;2024-01-15T12:32:56;4.60;;;1.30;;
18905;SDS011;9585;51.018;4.282;2024-01-15T12:35:26;3.57;;;1.30;;
18905;SDS011;9585;51.018;4.282;2024-01-15T12:37:55;4.37;;;1.53;;
18905;SDS011;9585;51.018;4.282;2024-01-15T12:40:23;5.13;;;1.53;;
18905;SDS011;9585;51.018;4.282;2024-01-15T12:42:50;6.00;;;1.53;;
18905;SDS011;9585;51.018;4.282;2024-01-15T12:45:18;8.80;;;1.30;;
18905;SDS011;9585;51.018;4.282;2024-01-15T12:47:45;4.10;;;1.50;;
18905;SDS011;9585;51.018;4.282;2024-01-15T12:50:13;5.93;;;2.33;;
18905;SDS011;9585;51.018;4.282;2024-01-15T12:52:42;4.90;;;1.30;;
18905;SDS011;9585;51.018;4.282;2024-01-15T12:55:09;5.07;;;1.27;;
18905;SDS011;9585;51.018;4.282;2024-01-15T12:57:37;8.10;;;1.37;;
18905;SDS011;9585;51.018;4.282;2024-01-15T13:00:05;5.53;;;1.23;;
18905;SDS011;9585;51.018;4.282;2024-01-15T13:02:37;8.27;;;1.63;;
18905;SDS011;9585;51.018;4.282;2024-01-15T13:05:07;4.50;;;1.20;;
18905;SDS011;9585;51.018;4.282;2024-01-15T13:07:36;6.80;;;1.90;;
18905;SDS011;9585;51.018;4.282;2024-01-15T13:10:06;5.03;;;1.30;;
18905;SDS011;9585;51.018;4.282;2024-01-15T13:12:34;4.13;;;1.00;;
18905;SDS011;9585;51.018;4.282;2024-01-15T13:15:02;3.90;;;1.23;;
18905;SDS011;9585;51.018;4.282;2024-01-15T13:17:30;4.60;;;1.00;;
18905;SDS011;9585;51.018;4.282;2024-01-15T13:19:57;6.93;;;1.20;;
18905;SDS011;9585;51.018;4.282;2024-01-15T13:22:25;5.23;;;1.70;;
18905;SDS011;9585;51.018;4.282;2024-01-15T13:24:57;5.50;;;1.37;;
18905;SDS011;9585;51.018;4.282;2024-01-15T13:27:26;2.93;;;0.83;;
18905;SDS011;9585;51.018;4.282;2024-01-15T13:29:53;1.47;;;0.80;;
18905;SDS011;9585;51.018;4.282;2024-01-15T13:32:22;2.90;;;0.83;;
18905;SDS011;9585;51.018;4.282;2024-01-15T13:34:52;1.50;;;0.70;;
18905;SDS011;9585;51.018;4.282;2024-01-15T13:37:20;1.10;;;0.70;;
18905;SDS011;9585;51.018;4.282;2024-01-15T13:39:49;1.23;;;0.83;;
18905;SDS011;9585;51.018;4.282;2024-01-15T13:42:18;1.50;;;0.60;;
18905;SDS011;9585;51.018;4.282;2024-01-15T13:44:49;0.80;;;0.60;;
18905;SDS011;9585;51.018;4.282;2024-01-15T13:47:17;1.07;;;0.57;;
18905;SDS011;9585;51.018;4.282;2024-01-15T13:49:44;1.27;;;0.53;;
18905;SDS011;9585;51.018;4.282;2024-01-15T13:52:12;3.00;;;0.80;;
18905;SDS011;9585;51.018;4.282;2024-01-15T13:54:40;2.47;;;0.70;;
18905;SDS011;9585;51.018;4.282;2024-01-15T13:57:07;1.27;;;0.43;;
18905;SDS011;9585;51.018;4.282;2024-01-15T13:59:35;1.20;;;0.60;;
18905;SDS011;9585;51.018;4.282;2024-01-15T14:02:04;2.93;;;0.60;;
18905;SDS011;9585;51.018;4.282;2024-01-15T14:04:32;1.63;;;0.70;;
18905;SDS011;9585;51.018;4.282;2024-01-15T14:07:00;3.80;;;0.80;;
18905;SDS011;9585;51.018;4.282;2024-01-15T14:09:28;1.93;;;0.73;;
18905;SDS011;9585;51.018;4.282;2024-01-15T14:11:57;3.13;;;0.90;;
18905;SDS011;9585;51.018;4.282;2024-01-15T14:14:30;5.97;;;2.63;;
18905;SDS011;9585;51.018;4.282;2024-01-15T14:16:58;1.93;;;0.73;;
18905;SDS011;9585;51.018;4.282;2024-01-15T14:19:27;2.70;;;1.00;;
18905;SDS011;9585;51.018;4.282;2024-01-15T14:21:55;3.03;;;1.00;;
18905;SDS011;9585;51.018;4.282;2024-01-15T14:24:23;1.27;;;0.73;;
18905;SDS011;9585;51.018;4.282;2024-01-15T14:26:50;3.57;;;0.83;;
18905;SDS011;9585;51.018;4.282;2024-01-15T14:29:18;3.97;;;0.80;;
18905;SDS011;9585;51.018;4.282;2024-01-15T14:31:47;4.17;;;0.97;;
18905;SDS011;9585;51.018;4.282;2024-01-15T14:34:15;3.93;;;0.70;;
18905;SDS011;9585;51.018;4.282;2024-01-15T14:36:44;2.70;;;0.82;;
18905;SDS011;9585;51.018;4.282;2024-01-15T14:39:12;1.80;;;1.00;;
18905;SDS011;9585;51.018;4.282;2024-01-15T14:41:40;3.23;;;1.03;;
18905;SDS011;9585;51.018;4.282;2024-01-15T14:44:07;5.57;;;1.43;;
18905;SDS011;9585;51.018;4.282;2024-01-15T14:46:35;4.53;;;1.33;;
18905;SDS011;9585;51.018;4.282;2024-01-15T14:49:02;3.83;;;1.10;;
18905;SDS011;9585;51.018;4.282;2024-01-15T14:51:30;3.40;;;1.43;;
18905;SDS011;9585;51.018;4.282;2024-01-15T14:53:59;3.40;;;1.20;;
18905;SDS011;9585;51.018;4.282;2024-01-15T14:56:27;3.47;;;1.50;;
18905;SDS011;9585;51.018;4.282;2024-01-15T14:58:54;3.63;;;1.50;;
18905;SDS011;9585;51.018;4.282;2024-01-15T15:01:22;5.17;;;1.67;;
18905;SDS011;9585;51.018;4.282;2024-01-15T15:03:49;5.43;;;1.50;;
18905;SDS011;9585;51.018;4.282;2024-01-15T15:06:17;3.97;;;1.30;;
18905;SDS011;9585;51.018;4.282;2024-01-15T15:08:46;4.90;;;1.30;;
18905;SDS011;9585;51.018;4.282;2024-01-15T15:11:15;4.40;;;1.37;;
18905;SDS011;9585;51.018;4.282;2024-01-15T15:13:42;3.33;;;1.30;;